Time;durP1;ratioP1;P1;durP2;ratioP2;P2;SDS_P1;SDS_P2;PMS_P1;PMS_P2;Temp;Humidity;BMP_temperature;BMP_pressure;BME280_temperature;BME280_humidity;BME280_pressure;Samples;Min_cycle;Max_cycle;Signal;HPM_P1;HPM_P2
2023/01/07 00:01:08;;;;;;;11.75;6.32;;;8.30;99.90;;;;;;5060932;28;20116;-68
2023/01/07 00:03:35;;;;;;;10.43;6.50;;;8.30;99.90;;;;;;5071296;28;20020;-68
2023/01/07 00:06:06;;;;;;;13.98;7.03;;;8.30;99.90;;;;;;5066920;28;20040;-69
2023/01/07 00:08:34;;;;;;;11.95;7.07;;;8.30;99.90;;;;;;5072813;28;20033;-67
2023/01/07 00:11:09;;;;;;;14.18;7.90;;;8.40;99.90;;;;;;5060441;28;20060;-68
2023/01/07 00:13:35;;;;;;;14.50;7.85;;;8.30;99.90;;;;;;5066696;28;20032;-70
2023/01/07 00:16:07;;;;;;;17.98;8.85;;;8.20;99.90;;;;;;5066930;28;20037;-67
2023/01/07 00:18:33;;;;;;;22.80;10.60;;;8.20;99.90;;;;;;5067533;28;20063;-68
2023/01/07 00:21:00;;;;;;;25.05;12.40;;;8.10;99.90;;;;;;5076197;28;20037;-69
2023/01/07 00:23:27;;;;;;;22.40;10.35;;;8.10;99.90;;;;;;5068512;28;20491;-68
2023/01/07 00:26:07;;;;;;;19.20;10.50;;;8.00;99.90;;;;;;5063079;28;20051;-70
2023/01/07 00:28:34;;;;;;;17.83;9.73;;;7.90;99.90;;;;;;5063920;28;20076;-68
2023/01/07 00:31:12;;;;;;;14.45;8.10;;;7.90;99.90;;;;;;5061040;28;21175;-69
2023/01/07 00:34:05;;;;;;;18.02;9.45;;;7.90;99.90;;;;;;5063532;28;20024;-68
2023/01/07 00:36:40;;;;;;;21.90;10.13;;;8.00;99.90;;;;;;5069719;28;20473;-67
2023/01/07 00:39:17;;;;;;;17.83;9.23;;;7.90;99.90;;;;;;5067424;28;20548;-70
2023/01/07 00:44:28;;;;;;;13.80;7.15;;;7.90;99.90;;;;;;5067411;28;20078;-68
2023/01/07 00:46:54;;;;;;;12.40;6.88;;;7.90;99.90;;;;;;5069608;28;20036;-67
2023/01/07 00:49:23;;;;;;;14.65;8.07;;;8.00;99.90;;;;;;5069504;28;20032;-69
2023/01/07 00:51:49;;;;;;;17.75;9.63;;;8.00;99.90;;;;;;5068866;28;20024;-71
2023/01/07 00:54:15;;;;;;;16.77;9.23;;;8.00;99.90;;;;;;5068535;28;20544;-70
2023/01/07 00:56:41;;;;;;;19.05;9.80;;;8.00;99.90;;;;;;5067448;28;20033;-70
2023/01/07 00:59:06;;;;;;;15.75;8.25;;;8.00;99.90;;;;;;5066105;28;20028;-68
2023/01/07 01:01:32;;;;;;;14.63;7.78;;;8.10;99.90;;;;;;5066639;28;20040;-67
2023/01/07 01:03:57;;;;;;;13.65;7.20;;;8.10;99.90;;;;;;5069813;28;20114;-67
2023/01/07 01:06:23;;;;;;;13.60;7.85;;;8.10;99.90;;;;;;5067780;28;20444;-67
2023/01/07 01:08:49;;;;;;;14.45;7.53;;;8.10;99.90;;;;;;5070056;28;20067;-71
2023/01/07 01:11:15;;;;;;;15.00;6.90;;;8.10;99.90;;;;;;5068065;28;20033;-69
2023/01/07 01:13:43;;;;;;;10.93;6.32;;;8.10;99.90;;;;;;5069855;28;20029;-68
2023/01/07 01:16:15;;;;;;;11.40;6.40;;;8.10;99.90;;;;;;5064217;28;20105;-69
2023/01/07 01:18:41;;;;;;;11.02;6.00;;;8.10;99.90;;;;;;5068383;28;20047;-68
2023/01/07 01:21:11;;;;;;;12.20;6.38;;;8.10;99.90;;;;;;5068877;28;20044;-69
2023/01/07 01:23:37;;;;;;;13.80;6.43;;;8.20;99.90;;;;;;5065300;28;20024;-68
2023/01/07 01:26:07;;;;;;;12.88;6.38;;;8.20;99.90;;;;;;5062915;28;20146;-67
2023/01/07 01:28:33;;;;;;;10.00;5.78;;;8.20;99.90;;;;;;5068061;28;20056;-67
2023/01/07 01:30:59;;;;;;;11.95;6.55;;;8.20;99.90;;;;;;5062601;28;20043;-67
2023/01/07 01:33:25;;;;;;;17.23;8.68;;;8.20;99.90;;;;;;5065526;28;20029;-69
2023/01/07 01:35:51;;;;;;;20.23;9.48;;;8.20;99.90;;;;;;5065478;28;20036;-69
2023/01/07 01:38:16;;;;;;;19.25;9.98;;;8.20;99.90;;;;;;5071196;28;20396;-68
2023/01/07 01:40:42;;;;;;;19.65;9.10;;;8.20;99.90;;;;;;5064730;28;20058;-67
2023/01/07 01:43:28;;;;;;;18.10;9.50;;;8.10;99.90;;;;;;5060385;28;20031;-69
2023/01/07 01:45:53;;;;;;;14.75;7.60;;;8.00;99.90;;;;;;5055353;28;20024;-69
2023/01/07 01:48:21;;;;;;;11.77;6.53;;;8.00;99.90;;;;;;5062498;28;20036;-69
2023/01/07 01:50:48;;;;;;;10.90;6.47;;;8.00;99.90;;;;;;5068961;28;20062;-69
2023/01/07 01:53:22;;;;;;;13.90;6.85;;;7.90;99.90;;;;;;5066806;28;20020;-68
2023/01/07 01:55:52;;;;;;;10.73;6.05;;;8.00;99.90;;;;;;5061672;28;20036;-68
2023/01/07 01:58:23;;;;;;;11.82;6.78;;;8.00;99.90;;;;;;5066902;28;20036;-69
2023/01/07 02:00:49;;;;;;;14.18;8.30;;;8.00;99.90;;;;;;5055587;28;20139;-71
2023/01/07 02:03:18;;;;;;;20.27;8.68;;;8.00;99.90;;;;;;5063525;28;20032;-69
2023/01/07 02:05:45;;;;;;;21.45;10.93;;;8.00;99.90;;;;;;5065919;28;20032;-67
2023/01/07 02:08:10;;;;;;;23.27;12.00;;;8.10;99.90;;;;;;5067393;28;20217;-69
2023/01/07 02:10:37;;;;;;;20.83;11.13;;;8.00;99.90;;;;;;5067630;28;20107;-68
2023/01/07 02:13:16;;;;;;;18.00;10.00;;;7.90;99.90;;;;;;5067972;28;20064;-69
2023/01/07 02:16:00;;;;;;;17.70;9.15;;;7.80;99.90;;;;;;5057415;28;20037;-68
2023/01/07 02:18:34;;;;;;;18.27;8.80;;;7.80;99.90;;;;;;5067258;28;20043;-69
2023/01/07 02:21:35;;;;;;;14.45;7.88;;;7.90;99.90;;;;;;5069881;28;20044;-69
2023/01/07 02:24:34;;;;;;;12.95;7.10;;;7.90;99.90;;;;;;5036495;28;20048;-69
2023/01/07 02:27:12;;;;;;;13.50;8.07;;;7.90;99.90;;;;;;5062808;28;20044;-68
2023/01/07 02:29:56;;;;;;;15.27;7.65;;;7.90;99.90;;;;;;5068456;28;20029;-70
2023/01/07 02:32:28;;;;;;;17.00;8.93;;;7.90;99.90;;;;;;5066751;28;20029;-69
2023/01/07 02:35:00;;;;;;;16.83;8.73;;;7.90;99.90;;;;;;5061710;28;20033;-69
2023/01/07 02:37:33;;;;;;;17.42;9.48;;;7.90;99.90;;;;;;5072639;28;20046;-70
2023/01/07 02:40:12;;;;;;;22.77;9.75;;;7.90;99.90;;;;;;5067467;28;20036;-69
2023/01/07 02:43:09;;;;;;;19.05;9.00;;;7.90;99.90;;;;;;5059383;28;20363;-68
2023/01/07 02:46:01;;;;;;;14.68;8.20;;;7.90;99.90;;;;;;5061371;28;20471;-69
2023/01/07 02:48:27;;;;;;;24.92;8.98;;;7.90;99.90;;;;;;5065043;28;20028;-68
2023/01/07 02:50:53;;;;;;;17.75;9.68;;;7.90;99.90;;;;;;5064727;28;20036;-69
2023/01/07 02:53:19;;;;;;;16.48;8.27;;;7.90;99.90;;;;;;5062314;28;20024;-69
2023/01/07 02:56:09;;;;;;;16.88;8.55;;;7.90;99.90;;;;;;5068225;28;20826;-69
2023/01/07 02:59:07;;;;;;;18.90;9.15;;;7.90;99.90;;;;;;5061108;28;20039;-68
2023/01/07 03:01:51;;;;;;;13.55;8.10;;;7.90;99.90;;;;;;5046841;28;20056;-69
2023/01/07 03:04:39;;;;;;;15.35;8.00;;;7.80;99.90;;;;;;5067237;28;20029;-68
2023/01/07 03:07:42;;;;;;;19.08;9.70;;;7.80;99.90;;;;;;5066665;28;20608;-68
2023/01/07 03:10:18;;;;;;;16.63;8.60;;;7.80;99.90;;;;;;5059577;28;20037;-68
2023/01/07 03:12:57;;;;;;;15.48;8.57;;;7.70;99.90;;;;;;5065572;28;20024;-68
2023/01/07 03:15:44;;;;;;;17.13;9.23;;;7.70;99.90;;;;;;5066279;28;20040;-68
2023/01/07 03:18:18;;;;;;;16.33;8.85;;;7.70;99.90;;;;;;5061079;28;20405;-69
2023/01/07 03:20:47;;;;;;;16.13;8.60;;;7.70;99.90;;;;;;5064534;28;20020;-68
2023/01/07 03:23:16;;;;;;;25.73;13.90;;;7.70;99.90;;;;;;5055599;28;20036;-68
2023/01/07 03:25:49;;;;;;;27.80;12.88;;;7.70;99.90;;;;;;5068409;28;20043;-68
2023/01/07 03:28:18;;;;;;;27.00;13.15;;;7.50;99.90;;;;;;5067576;28;20053;-69
2023/01/07 03:30:46;;;;;;;27.15;12.48;;;7.40;99.90;;;;;;5069022;28;20490;-69
2023/01/07 03:33:44;;;;;;;19.15;10.60;;;7.40;99.90;;;;;;5061363;28;20107;-69
2023/01/07 03:36:15;;;;;;;15.55;8.77;;;7.50;99.90;;;;;;5050549;28;20118;-69
2023/01/07 03:38:43;;;;;;;14.60;7.40;;;7.50;99.90;;;;;;5069151;28;20035;-70
2023/01/07 03:42:38;;;;;;;21.73;11.50;;;7.50;99.90;;;;;;5070299;28;20025;-69
2023/01/07 03:43:54;;;;;;;27.38;11.50;;;7.50;99.90;;;;;;5068278;28;20496;-68
2023/01/07 03:46:20;;;;;;;26.45;12.40;;;7.30;99.90;;;;;;5067738;28;20071;-68
2023/01/07 03:48:45;;;;;;;23.15;11.05;;;7.30;99.90;;;;;;5067015;28;20036;-70
2023/01/07 03:51:11;;;;;;;21.25;10.05;;;7.20;99.90;;;;;;5066581;28;20107;-68
2023/01/07 03:53:37;;;;;;;15.68;8.35;;;7.30;99.90;;;;;;5068409;28;20062;-69
2023/01/07 03:56:02;;;;;;;12.85;7.20;;;7.30;99.90;;;;;;5069050;28;20055;-70
2023/01/07 03:58:28;;;;;;;13.88;7.53;;;7.40;99.90;;;;;;5069366;28;20112;-68
2023/01/07 04:00:54;;;;;;;17.88;9.50;;;7.40;99.90;;;;;;5059102;28;20104;-67
2023/01/07 04:03:19;;;;;;;17.92;9.43;;;7.50;99.90;;;;;;5066078;28;20029;-70
2023/01/07 04:05:45;;;;;;;18.50;9.48;;;7.50;99.90;;;;;;5066585;28;20050;-68
2023/01/07 04:08:11;;;;;;;17.33;9.20;;;7.50;99.90;;;;;;5066764;28;20401;-70
2023/01/07 04:10:36;;;;;;;20.58;8.90;;;7.40;99.90;;;;;;5070203;28;20066;-69
2023/01/07 04:13:02;;;;;;;19.60;10.50;;;7.40;99.90;;;;;;5068525;28;20051;-70
2023/01/07 04:15:28;;;;;;;22.95;10.13;;;7.40;99.90;;;;;;5064107;28;20082;-70
2023/01/07 04:17:53;;;;;;;14.80;7.70;;;7.40;99.90;;;;;;5069573;28;20474;-68
2023/01/07 04:20:19;;;;;;;14.88;7.90;;;7.40;99.90;;;;;;5069419;28;20063;-68
2023/01/07 04:22:44;;;;;;;14.30;7.63;;;7.50;99.90;;;;;;5067806;28;20362;-68
2023/01/07 04:25:10;;;;;;;11.27;6.55;;;7.50;99.90;;;;;;5070102;28;20426;-67
2023/01/07 04:27:36;;;;;;;14.40;6.82;;;7.50;99.90;;;;;;5064210;28;20045;-69
2023/01/07 04:30:01;;;;;;;12.20;7.18;;;7.60;99.90;;;;;;5063724;28;20032;-71
2023/01/07 04:32:27;;;;;;;11.05;6.35;;;7.60;99.90;;;;;;5061220;28;20029;-68
2023/01/07 04:34:52;;;;;;;11.35;6.05;;;7.60;99.90;;;;;;5068967;28;20036;-67
2023/01/07 04:37:18;;;;;;;11.73;5.32;;;7.60;99.90;;;;;;5067402;28;20428;-69
2023/01/07 04:39:44;;;;;;;12.18;6.07;;;7.70;99.90;;;;;;5070586;28;20021;-70
2023/01/07 04:42:09;;;;;;;17.15;8.18;;;7.70;99.90;;;;;;5063383;28;20051;-69
2023/01/07 04:44:35;;;;;;;14.20;6.75;;;7.70;99.90;;;;;;5072512;28;20127;-69
2023/01/07 04:47:00;;;;;;;13.82;6.93;;;7.70;99.90;;;;;;5068807;28;20037;-67
2023/01/07 04:49:26;;;;;;;11.52;6.78;;;7.70;99.90;;;;;;5068632;28;20469;-69
2023/01/07 04:51:51;;;;;;;14.88;7.55;;;7.70;99.90;;;;;;5067462;28;20108;-69
2023/01/07 04:54:17;;;;;;;12.02;7.00;;;7.70;99.90;;;;;;5067394;28;20036;-69
2023/01/07 04:56:43;;;;;;;13.98;7.07;;;7.70;99.90;;;;;;5070780;28;20451;-69
2023/01/07 04:59:08;;;;;;;13.45;7.53;;;7.70;99.90;;;;;;5069018;28;20029;-69
2023/01/07 05:01:34;;;;;;;16.13;7.25;;;7.70;99.90;;;;;;5066811;28;20020;-69
2023/01/07 05:04:00;;;;;;;13.85;7.45;;;7.70;99.90;;;;;;5068500;28;20134;-69
2023/01/07 05:06:25;;;;;;;14.00;6.80;;;7.70;99.90;;;;;;5068948;28;20111;-69
2023/01/07 05:08:51;;;;;;;11.93;5.18;;;7.70;99.90;;;;;;5070050;28;20060;-69
2023/01/07 05:11:20;;;;;;;8.45;4.65;;;7.70;99.90;;;;;;5073024;28;20070;-68
2023/01/07 05:13:49;;;;;;;8.30;4.85;;;7.80;99.90;;;;;;5064788;28;20413;-69
2023/01/07 05:16:15;;;;;;;9.98;4.88;;;7.80;99.90;;;;;;5069101;28;20067;-68
2023/01/07 05:18:40;;;;;;;11.95;5.95;;;7.90;99.90;;;;;;5069494;28;20036;-69
2023/01/07 05:21:06;;;;;;;10.38;5.55;;;7.90;99.90;;;;;;5062786;28;20526;-69
2023/01/07 05:23:32;;;;;;;9.18;4.97;;;7.90;99.90;;;;;;5066203;28;20078;-68
2023/01/07 05:25:57;;;;;;;7.63;4.45;;;7.80;99.90;;;;;;5069497;28;20484;-69
2023/01/07 05:28:23;;;;;;;12.85;6.82;;;7.90;99.90;;;;;;5070185;28;20049;-68
2023/01/07 05:30:48;;;;;;;11.32;6.00;;;7.90;99.90;;;;;;5066081;28;20029;-68
2023/01/07 05:33:14;;;;;;;9.25;5.32;;;7.80;99.90;;;;;;5069144;28;20029;-69
2023/01/07 05:35:40;;;;;;;9.20;5.30;;;7.80;99.90;;;;;;5069234;28;20071;-69
2023/01/07 05:38:05;;;;;;;10.65;4.75;;;7.80;99.90;;;;;;5069012;28;20040;-71
2023/01/07 05:40:31;;;;;;;9.38;4.97;;;7.80;99.90;;;;;;5067871;28;20039;-69
2023/01/07 05:42:56;;;;;;;6.88;3.97;;;7.80;99.90;;;;;;5060972;28;20021;-68
2023/01/07 05:45:22;;;;;;;6.05;3.50;;;7.80;99.90;;;;;;5059777;28;20032;-67
2023/01/07 05:47:48;;;;;;;8.75;5.10;;;7.90;99.90;;;;;;5064457;28;20108;-68
2023/01/07 05:50:14;;;;;;;11.82;5.47;;;7.90;99.90;;;;;;5064487;28;20025;-66
2023/01/07 05:52:39;;;;;;;9.50;5.43;;;7.90;99.90;;;;;;5067339;28;20772;-67
2023/01/07 05:55:06;;;;;;;10.43;5.50;;;7.90;99.90;;;;;;5066503;28;20063;-69
2023/01/07 05:57:31;;;;;;;10.50;6.07;;;7.80;99.90;;;;;;5059607;28;20052;-66
2023/01/07 05:59:57;;;;;;;27.63;12.73;;;7.90;99.90;;;;;;5064983;28;20072;-69
2023/01/07 06:02:23;;;;;;;26.10;12.07;;;7.80;99.90;;;;;;5046867;28;20179;-68
2023/01/07 06:04:48;;;;;;;14.75;7.97;;;7.80;99.90;;;;;;5057486;28;20036;-69
2023/01/07 06:07:14;;;;;;;13.50;6.85;;;7.70;99.90;;;;;;5060621;28;20021;-69
2023/01/07 06:09:39;;;;;;;14.60;7.63;;;7.70;99.90;;;;;;5062150;28;20037;-69
2023/01/07 06:12:05;;;;;;;10.23;5.75;;;7.70;99.90;;;;;;5072555;28;20035;-69
2023/01/07 06:14:31;;;;;;;9.63;5.18;;;7.70;99.90;;;;;;5058545;28;20698;-69
2023/01/07 06:16:56;;;;;;;7.97;4.63;;;7.70;99.90;;;;;;5057508;28;20043;-70
2023/01/07 06:19:22;;;;;;;9.00;4.60;;;7.70;99.90;;;;;;5052193;28;20470;-68
2023/01/07 06:21:48;;;;;;;9.18;5.00;;;7.70;99.90;;;;;;5048632;28;20029;-68
2023/01/07 06:24:14;;;;;;;13.25;5.82;;;7.80;99.90;;;;;;5053502;28;20115;-69
2023/01/07 06:26:40;;;;;;;10.52;5.38;;;7.80;99.90;;;;;;5057964;28;20175;-68
2023/01/07 06:29:06;;;;;;;13.63;6.60;;;7.80;99.90;;;;;;5044293;28;20029;-70
2023/01/07 06:31:32;;;;;;;11.98;6.82;;;7.80;99.90;;;;;;5055409;28;20028;-68
2023/01/07 06:33:57;;;;;;;24.67;15.15;;;7.80;99.90;;;;;;5050039;28;20037;-70
2023/01/07 06:36:23;;;;;;;23.70;14.82;;;7.80;99.90;;;;;;5054668;28;20061;-70
2023/01/07 06:38:48;;;;;;;20.20;12.45;;;7.80;99.90;;;;;;5044381;28;20525;-69
2023/01/07 06:41:14;;;;;;;16.92;10.45;;;7.80;99.90;;;;;;5041855;28;20078;-69
2023/01/07 06:43:40;;;;;;;15.52;10.40;;;7.80;99.90;;;;;;5049445;28;20031;-70
2023/01/07 06:46:05;;;;;;;19.02;10.43;;;7.80;99.90;;;;;;5060789;28;20043;-69
2023/01/07 06:48:31;;;;;;;25.85;17.40;;;7.80;99.90;;;;;;5062566;28;20094;-69
2023/01/07 06:50:56;;;;;;;21.55;12.77;;;7.80;99.90;;;;;;5063025;28;20826;-69
2023/01/07 06:53:22;;;;;;;30.92;18.40;;;7.80;99.90;;;;;;5063155;28;20024;-70
2023/01/07 06:55:49;;;;;;;27.80;14.85;;;7.80;99.90;;;;;;5061591;28;20056;-68
2023/01/07 06:58:15;;;;;;;24.42;13.70;;;7.80;99.90;;;;;;5060420;28;20469;-70
2023/01/07 07:00:41;;;;;;;22.73;12.10;;;7.80;99.90;;;;;;5062439;28;20059;-69
2023/01/07 07:03:07;;;;;;;23.75;11.48;;;7.80;99.90;;;;;;5054759;28;20074;-68
2023/01/07 07:05:33;;;;;;;23.42;13.32;;;7.80;99.90;;;;;;5067767;28;20051;-70
2023/01/07 07:08:01;;;;;;;21.60;11.57;;;7.80;99.90;;;;;;5063669;28;20043;-70
2023/01/07 07:10:27;;;;;;;20.33;10.55;;;7.80;99.90;;;;;;5058529;28;20029;-69
2023/01/07 07:12:52;;;;;;;21.58;10.40;;;7.70;99.90;;;;;;5051160;28;20086;-69
2023/01/07 07:15:18;;;;;;;25.40;12.07;;;7.70;99.90;;;;;;5046289;28;20575;-69
2023/01/07 07:17:44;;;;;;;26.05;11.57;;;7.70;99.90;;;;;;5057951;28;20028;-69
2023/01/07 07:20:10;;;;;;;22.55;11.70;;;7.70;99.90;;;;;;5062248;28;20029;-69
2023/01/07 07:22:36;;;;;;;25.92;11.40;;;7.60;99.90;;;;;;5053109;28;20024;-70
2023/01/07 07:25:03;;;;;;;22.50;12.15;;;7.60;99.90;;;;;;5048452;28;20032;-68
2023/01/07 07:27:28;;;;;;;21.88;11.90;;;7.70;99.90;;;;;;5047667;28;20135;-69
2023/01/07 07:29:54;;;;;;;24.65;12.52;;;7.70;99.90;;;;;;5042697;28;20143;-70
2023/01/07 07:32:20;;;;;;;25.17;12.68;;;7.70;99.90;;;;;;5048553;28;20743;-69
2023/01/07 07:34:45;;;;;;;25.25;12.57;;;7.60;99.90;;;;;;5047180;28;20087;-69
2023/01/07 07:37:11;;;;;;;24.35;12.50;;;7.60;99.90;;;;;;5052442;28;20078;-69
2023/01/07 07:39:37;;;;;;;28.02;12.07;;;7.60;99.90;;;;;;5054336;28;20028;-68
2023/01/07 07:42:03;;;;;;;25.88;12.48;;;7.70;99.90;;;;;;5051827;28;20060;-70
2023/01/07 07:44:29;;;;;;;25.13;12.77;;;7.70;99.90;;;;;;5049965;28;20428;-70
2023/01/07 07:46:54;;;;;;;22.75;11.73;;;7.70;99.90;;;;;;5046586;28;20044;-70
2023/01/07 07:49:20;;;;;;;22.70;12.00;;;7.70;99.90;;;;;;5054134;28;20033;-69
2023/01/07 07:51:46;;;;;;;18.08;8.93;;;7.70;99.90;;;;;;5050397;28;20785;-70
2023/01/07 07:54:11;;;;;;;24.55;12.30;;;7.70;99.90;;;;;;5044984;28;20032;-70
2023/01/07 07:56:37;;;;;;;24.83;12.40;;;7.70;99.90;;;;;;5053086;28;20035;-70
2023/01/07 07:59:02;;;;;;;24.55;12.18;;;7.80;99.90;;;;;;5058565;28;20043;-70
2023/01/07 08:01:28;;;;;;;26.58;13.73;;;7.80;99.90;;;;;;5062304;28;20461;-68
2023/01/07 08:03:54;;;;;;;27.60;13.57;;;7.70;99.90;;;;;;5058076;28;20040;-69
2023/01/07 08:06:19;;;;;;;26.08;13.25;;;7.70;99.90;;;;;;5062508;28;20068;-69
2023/01/07 08:08:45;;;;;;;25.33;12.15;;;7.70;99.90;;;;;;5052631;28;20025;-69
2023/01/07 08:11:10;;;;;;;26.27;13.25;;;7.80;99.90;;;;;;5057430;28;20039;-69
2023/01/07 08:13:36;;;;;;;28.23;12.82;;;7.80;99.90;;;;;;5063717;28;20028;-69
2023/01/07 08:16:02;;;;;;;25.27;12.73;;;7.80;99.90;;;;;;5073470;28;20052;-69
2023/01/07 08:18:27;;;;;;;27.90;13.80;;;7.80;99.90;;;;;;5069398;28;20048;-69
2023/01/07 08:20:54;;;;;;;28.75;13.00;;;7.80;99.90;;;;;;5068038;28;20028;-68
2023/01/07 08:23:20;;;;;;;26.90;13.10;;;7.70;99.90;;;;;;5064572;28;20030;-70
2023/01/07 08:25:46;;;;;;;26.42;12.98;;;7.80;99.90;;;;;;5061365;28;20116;-68
2023/01/07 08:28:12;;;;;;;29.75;12.88;;;7.80;99.90;;;;;;5062734;28;20059;-69
2023/01/07 08:30:37;;;;;;;28.38;13.52;;;7.80;99.90;;;;;;5081400;28;20046;-67
2023/01/07 08:33:06;;;;;;;28.15;13.13;;;7.80;99.90;;;;;;5070615;28;20456;-67
2023/01/07 08:35:32;;;;;;;29.15;13.10;;;7.90;99.90;;;;;;5069363;28;20036;-67
2023/01/07 08:38:06;;;;;;;27.27;12.60;;;7.90;99.90;;;;;;5070004;28;20033;-67
2023/01/07 08:40:32;;;;;;;25.55;12.68;;;7.90;99.90;;;;;;5048506;28;20025;-66
2023/01/07 08:42:59;;;;;;;28.00;12.95;;;7.80;99.90;;;;;;5067447;28;20385;-67
2023/01/07 08:45:24;;;;;;;28.63;12.75;;;7.90;99.90;;;;;;5068383;28;20350;-67
2023/01/07 08:47:50;;;;;;;25.63;12.63;;;7.80;99.90;;;;;;5070559;28;20040;-68
2023/01/07 08:50:16;;;;;;;25.88;12.23;;;7.80;99.90;;;;;;5070208;28;20024;-69
2023/01/07 08:52:45;;;;;;;25.33;11.93;;;7.90;99.90;;;;;;5069857;28;20033;-68
2023/01/07 08:55:10;;;;;;;23.75;11.63;;;7.90;99.90;;;;;;5069768;28;20493;-67
2023/01/07 08:57:36;;;;;;;22.55;11.05;;;7.90;99.90;;;;;;5067907;28;20068;-68
2023/01/07 09:00:02;;;;;;;23.15;10.65;;;7.90;99.90;;;;;;5073152;28;20115;-69
2023/01/07 09:02:27;;;;;;;22.20;10.07;;;8.00;99.90;;;;;;5069235;28;20032;-67
2023/01/07 09:04:53;;;;;;;21.52;11.07;;;8.00;99.90;;;;;;5070014;28;20060;-68
2023/01/07 09:07:18;;;;;;;20.02;9.68;;;8.00;99.90;;;;;;5070257;28;20482;-70
2023/01/07 09:09:44;;;;;;;20.63;9.88;;;8.00;99.90;;;;;;5069515;28;20024;-67
2023/01/07 09:12:10;;;;;;;19.83;10.13;;;8.00;99.90;;;;;;5070038;28;20504;-68
2023/01/07 09:14:35;;;;;;;19.52;9.52;;;8.00;99.90;;;;;;5068859;28;20112;-68
2023/01/07 09:17:01;;;;;;;17.70;8.55;;;8.10;99.90;;;;;;5068512;28;20524;-68
2023/01/07 09:19:27;;;;;;;15.63;7.80;;;8.10;99.90;;;;;;5068870;28;20074;-66
2023/01/07 09:21:52;;;;;;;15.55;7.60;;;8.00;99.90;;;;;;5070810;28;20474;-66
2023/01/07 09:24:18;;;;;;;15.73;7.45;;;8.10;99.90;;;;;;5072773;28;20104;-70
2023/01/07 09:26:44;;;;;;;12.90;6.38;;;8.10;99.90;;;;;;5068573;28;20121;-67
2023/01/07 09:29:09;;;;;;;13.27;6.05;;;8.00;99.90;;;;;;5060192;28;20056;-66
2023/01/07 09:31:35;;;;;;;14.13;6.60;;;8.10;99.90;;;;;;5063010;28;20125;-66
2023/01/07 09:34:01;;;;;;;12.70;5.95;;;8.00;99.90;;;;;;5058800;28;20036;-67
2023/01/07 09:36:26;;;;;;;13.27;6.40;;;8.10;99.90;;;;;;5063711;28;20036;-68
2023/01/07 09:38:53;;;;;;;13.35;6.18;;;8.10;99.90;;;;;;5069710;28;20048;-67
2023/01/07 09:41:29;;;;;;;14.18;6.60;;;8.20;99.90;;;;;;5069332;28;20020;-70
2023/01/07 09:44:02;;;;;;;15.50;6.85;;;8.20;99.90;;;;;;5069073;28;20108;-67
2023/01/07 09:46:29;;;;;;;12.85;5.75;;;8.20;99.90;;;;;;5068526;28;20040;-67
2023/01/07 09:49:00;;;;;;;11.10;5.57;;;8.20;99.90;;;;;;5069309;28;20036;-66
2023/01/07 09:51:42;;;;;;;10.82;5.40;;;8.20;99.90;;;;;;5073532;28;20431;-68
2023/01/07 09:54:27;;;;;;;12.05;5.50;;;8.20;99.90;;;;;;5069188;28;20032;-66
2023/01/07 09:56:53;;;;;;;10.43;5.50;;;8.20;99.90;;;;;;5068796;28;20041;-67
2023/01/07 09:59:18;;;;;;;12.38;6.10;;;8.30;99.90;;;;;;5069344;28;20086;-68
2023/01/07 10:02:16;;;;;;;12.13;5.78;;;8.40;99.90;;;;;;5068451;28;20453;-68
2023/01/07 10:04:51;;;;;;;10.13;5.28;;;8.40;99.90;;;;;;5067337;28;20021;-67
2023/01/07 10:07:35;;;;;;;12.85;6.00;;;8.30;99.90;;;;;;5068906;28;20020;-67
2023/01/07 10:10:04;;;;;;;12.80;6.38;;;8.30;99.90;;;;;;5068960;28;20060;-69
2023/01/07 10:12:54;;;;;;;11.27;5.90;;;8.40;99.90;;;;;;5068077;28;20047;-65
2023/01/07 10:15:44;;;;;;;10.55;5.47;;;8.30;99.90;;;;;;5067163;28;20047;-66
2023/01/07 10:18:11;;;;;;;11.45;5.60;;;8.30;99.90;;;;;;5068615;28;20035;-66
2023/01/07 10:21:04;;;;;;;11.23;5.55;;;8.30;99.90;;;;;;5070351;28;20128;-66
2023/01/07 10:23:35;;;;;;;12.43;6.25;;;8.40;99.90;;;;;;5067967;28;20545;-66
2023/01/07 10:26:02;;;;;;;13.65;5.60;;;8.40;99.90;;;;;;5068203;28;20283;-68
2023/01/07 10:28:38;;;;;;;11.57;6.20;;;8.50;99.90;;;;;;5067307;28;20504;-68
2023/01/07 10:31:06;;;;;;;12.02;5.93;;;8.70;99.90;;;;;;5068306;28;20461;-67
2023/01/07 10:33:33;;;;;;;12.55;6.07;;;8.60;99.90;;;;;;5069215;28;20397;-67
2023/01/07 10:36:19;;;;;;;12.95;6.20;;;8.50;99.90;;;;;;5070862;28;20116;-66
2023/01/07 10:39:11;;;;;;;12.85;6.00;;;8.40;99.90;;;;;;5067485;28;20052;-66
2023/01/07 10:41:56;;;;;;;10.55;5.75;;;8.40;99.90;;;;;;5067126;28;20358;-68
2023/01/07 10:44:30;;;;;;;10.95;5.57;;;8.40;99.90;;;;;;5068106;28;20111;-67
2023/01/07 10:47:30;;;;;;;11.90;6.50;;;8.60;99.90;;;;;;5067506;28;20089;-69
2023/01/07 10:50:23;;;;;;;12.88;5.88;;;8.60;99.90;;;;;;5063254;28;20058;-67
2023/01/07 10:53:21;;;;;;;11.45;5.75;;;8.90;99.90;;;;;;5061248;28;20393;-67
2023/01/07 10:55:54;;;;;;;14.18;6.10;;;9.20;99.90;;;;;;5069975;28;20501;-65
2023/01/07 10:58:21;;;;;;;12.52;5.93;;;9.20;99.90;;;;;;5068016;28;20032;-66
2023/01/07 11:00:48;;;;;;;13.48;6.40;;;9.00;99.90;;;;;;5067060;28;20832;-66
2023/01/07 11:03:22;;;;;;;12.45;6.03;;;9.00;99.90;;;;;;5068109;28;20036;-66
2023/01/07 11:05:55;;;;;;;11.45;6.15;;;8.80;99.90;;;;;;5059909;28;20867;-67
2023/01/07 11:08:36;;;;;;;13.95;7.00;;;8.70;99.90;;;;;;5067986;28;20075;-69
2023/01/07 11:11:03;;;;;;;13.25;6.13;;;8.70;99.90;;;;;;5075412;28;20025;-66
2023/01/07 11:13:36;;;;;;;11.38;5.95;;;8.70;99.90;;;;;;5067055;28;20029;-67
2023/01/07 11:16:16;;;;;;;15.38;6.53;;;8.70;99.90;;;;;;5067938;28;20040;-68
2023/01/07 11:19:04;;;;;;;11.93;5.80;;;8.70;99.90;;;;;;5067369;28;20036;-66
2023/01/07 11:21:30;;;;;;;12.73;6.60;;;8.80;99.90;;;;;;5064319;28;20047;-70
2023/01/07 11:23:57;;;;;;;11.93;6.00;;;8.80;99.90;;;;;;5067686;28;20481;-66
2023/01/07 11:26:25;;;;;;;11.00;5.88;;;9.00;99.90;;;;;;5062608;28;20021;-67
2023/01/07 11:28:55;;;;;;;13.07;6.22;;;9.40;99.90;;;;;;5063894;28;20036;-68
2023/01/07 11:31:44;;;;;;;11.00;5.28;;;9.70;99.90;;;;;;5064245;28;20020;-68
2023/01/07 11:34:24;;;;;;;10.63;5.43;;;9.70;99.90;;;;;;5061628;28;20123;-67
2023/01/07 11:36:50;;;;;;;11.02;6.15;;;9.70;99.90;;;;;;5062857;28;20228;-67
2023/01/07 11:39:28;;;;;;;11.25;5.50;;;9.40;99.90;;;;;;5056463;28;20129;-68
2023/01/07 11:45:22;;;;;;;9.70;5.32;;;9.10;99.90;;;;;;5052980;28;20393;-67
2023/01/07 11:48:06;;;;;;;9.32;5.28;;;9.20;99.90;;;;;;5054276;28;20021;-67
2023/01/07 11:50:41;;;;;;;10.85;5.90;;;9.60;99.90;;;;;;5068819;28;20032;-67
2023/01/07 11:53:13;;;;;;;10.15;5.72;;;9.70;99.90;;;;;;5069772;28;20052;-68
2023/01/07 11:55:39;;;;;;;9.77;5.60;;;9.90;99.90;;;;;;5066594;28;20051;-67
2023/01/07 11:58:16;;;;;;;10.30;5.20;;;10.10;99.90;;;;;;5073503;28;20082;-68
2023/01/07 12:00:42;;;;;;;11.52;6.07;;;10.20;99.90;;;;;;5064546;28;20469;-67
2023/01/07 12:03:12;;;;;;;10.80;5.85;;;10.30;99.90;;;;;;5068146;28;20074;-67
2023/01/07 12:05:40;;;;;;;9.65;5.30;;;10.40;99.90;;;;;;5064988;28;20036;-67
2023/01/07 12:08:16;;;;;;;8.93;5.20;;;10.40;99.90;;;;;;5069646;28;20132;-66
2023/01/07 12:10:42;;;;;;;8.88;5.03;;;10.40;99.90;;;;;;5062987;28;20056;-67
2023/01/07 12:13:22;;;;;;;9.40;4.90;;;10.70;99.90;;;;;;5072892;28;20057;-67
2023/01/07 12:16:07;;;;;;;8.73;4.80;;;10.80;99.90;;;;;;5066643;28;20036;-68
2023/01/07 12:18:36;;;;;;;9.00;4.93;;;10.60;99.90;;;;;;5060883;28;20293;-68
2023/01/07 12:21:10;;;;;;;7.43;4.20;;;10.60;99.90;;;;;;5072021;28;20032;-67
2023/01/07 12:24:02;;;;;;;8.50;4.13;;;10.90;99.90;;;;;;5055906;28;20035;-67
2023/01/07 12:26:48;;;;;;;8.07;4.43;;;10.90;99.90;;;;;;5052276;28;20028;-67
2023/01/07 12:29:37;;;;;;;11.30;3.88;;;11.00;99.90;;;;;;5049841;28;20421;-67
2023/01/07 12:32:44;;;;;;;7.97;4.13;;;10.80;99.90;;;;;;5055080;28;20028;-67
2023/01/07 12:35:17;;;;;;;9.27;4.85;;;10.90;99.90;;;;;;5064232;28;20040;-67
2023/01/07 12:37:57;;;;;;;8.23;4.50;;;11.00;99.90;;;;;;5064674;28;20033;-67
2023/01/07 12:40:35;;;;;;;7.00;3.47;;;11.30;99.90;;;;;;5058827;28;20067;-67
2023/01/07 12:43:15;;;;;;;7.50;4.35;;;11.60;99.90;;;;;;5054726;28;20494;-66
2023/01/07 12:45:56;;;;;;;5.88;3.70;;;11.80;99.90;;;;;;5057423;28;20436;-65
2023/01/07 12:48:39;;;;;;;8.00;4.63;;;11.90;99.90;;;;;;5058234;28;20103;-67
2023/01/07 12:51:19;;;;;;;8.30;4.80;;;11.60;99.90;;;;;;5057574;28;20039;-66
2023/01/07 12:54:14;;;;;;;8.65;4.50;;;11.50;99.90;;;;;;5061637;28;20032;-68
2023/01/07 12:57:18;;;;;;;7.30;4.50;;;11.80;99.90;;;;;;5056576;28;20501;-66
2023/01/07 13:00:00;;;;;;;7.72;4.60;;;12.10;99.90;;;;;;5052090;28;20137;-66
2023/01/07 13:02:47;;;;;;;7.50;3.95;;;12.40;99.90;;;;;;5052270;28;20115;-67
2023/01/07 13:05:31;;;;;;;7.43;4.50;;;12.50;99.90;;;;;;5056730;28;20032;-67
2023/01/07 13:08:12;;;;;;;8.15;4.50;;;12.30;99.90;;;;;;5064141;28;20033;-67
2023/01/07 13:10:48;;;;;;;7.40;4.35;;;12.50;99.90;;;;;;5059174;28;20536;-67